Time;durP1;ratioP1;P1;durP2;ratioP2;P2;SDS_P1;SDS_P2;PMS_P1;PMS_P2;Temp;Humidity;BMP_temperature;BMP_pressure;BME280_temperature;BME280_humidity;BME280_pressure;Samples;Min_cycle;Max_cycle;Signal;HPM_P1;HPM_P2
2021/06/18 00:02:24;;;;;;;7.72;3.15;;;;;;;18.64;72.46;99869.98;1654610;84;20918;-75
2021/06/18 00:04:51;;;;;;;8.70;3.25;;;;;;;18.59;72.50;99869.65;1687715;84;21468;-75
2021/06/18 00:07:17;;;;;;;10.55;3.15;;;;;;;18.56;72.43;99873.73;1664065;84;20965;-75
2021/06/18 00:09:43;;;;;;;9.28;3.00;;;;;;;18.53;72.38;99866.11;1674861;84;21073;-75
2021/06/18 00:12:12;;;;;;;3.80;2.60;;;;;;;18.51;72.41;99862.89;1674899;84;21515;-75
2021/06/18 00:14:41;;;;;;;5.75;2.67;;;;;;;18.48;72.52;99863.83;1682086;84;21269;-75
2021/06/18 00:17:07;;;;;;;6.37;2.60;;;;;;;18.44;72.58;99858.00;1664401;84;21096;-75
2021/06/18 00:19:35;;;;;;;7.05;2.47;;;;;;;18.40;72.54;99857.91;1666153;84;20919;-74
2021/06/18 00:22:02;;;;;;;5.75;2.65;;;;;;;18.37;72.39;99859.22;1669702;84;21552;-74
2021/06/18 00:24:28;;;;;;;4.12;2.52;;;;;;;18.35;72.52;99865.72;1681677;84;21737;-75
2021/06/18 00:26:56;;;;;;;4.97;2.42;;;;;;;18.31;72.46;99864.82;1691031;84;20994;-75
2021/06/18 00:29:22;;;;;;;11.73;2.50;;;;;;;18.28;72.30;99862.77;1667044;84;21007;-74
2021/06/18 00:31:48;;;;;;;7.00;2.50;;;;;;;18.28;72.33;99862.77;1669498;85;20999;-75
2021/06/18 00:34:15;;;;;;;10.13;2.22;;;;;;;18.27;72.33;99859.76;1659110;85;21611;-75
2021/06/18 00:36:41;;;;;;;5.45;3.55;;;;;;;18.23;72.20;99862.45;1653286;84;21761;-76
2021/06/18 00:39:07;;;;;;;10.65;2.08;;;;;;;18.21;72.14;99857.83;1673071;84;21101;-76
2021/06/18 00:41:34;;;;;;;5.08;2.08;;;;;;;18.19;72.21;99860.75;1646090;84;20943;-74
2021/06/18 00:44:01;;;;;;;3.70;2.70;;;;;;;18.17;72.20;99859.72;1680347;84;20921;-75
2021/06/18 00:46:27;;;;;;;6.17;2.60;;;;;;;18.13;72.34;99861.59;1659933;84;21040;-75
2021/06/18 00:48:54;;;;;;;5.10;2.02;;;;;;;18.09;72.30;99857.92;1664717;84;21561;-75
2021/06/18 00:51:20;;;;;;;7.08;2.40;;;;;;;18.04;72.33;99859.58;1673233;84;20948;-75
2021/06/18 00:53:47;;;;;;;10.18;2.05;;;;;;;18.01;72.18;99861.68;1686027;84;21044;-75
2021/06/18 00:56:14;;;;;;;6.35;2.02;;;;;;;17.97;72.13;99857.42;1688313;84;21016;-76
2021/06/18 00:58:40;;;;;;;9.75;2.08;;;;;;;17.96;72.09;99853.61;1656437;85;21155;-76
2021/06/18 01:01:06;;;;;;;4.17;2.05;;;;;;;17.94;72.12;99853.97;1682935;84;21109;-75
2021/06/18 01:03:34;;;;;;;4.40;2.25;;;;;;;17.92;72.20;99858.27;1688047;84;21489;-76
2021/06/18 01:06:00;;;;;;;5.20;2.25;;;;;;;17.89;72.25;99850.09;1651556;84;20919;-76
2021/06/18 01:08:44;;;;;;;8.53;2.42;;;;;;;17.85;72.23;99856.14;1643971;86;20931;-75
2021/06/18 01:11:53;;;;;;;4.87;2.35;;;;;;;17.80;72.22;99845.30;1629254;84;21067;-75
2021/06/18 01:14:28;;;;;;;6.90;3.27;;;;;;;17.76;72.49;99852.14;1691238;84;21786;-74
2021/06/18 01:17:24;;;;;;;4.62;3.33;;;;;;;17.70;72.76;99849.40;1686147;84;20913;-74
2021/06/18 01:20:06;;;;;;;10.08;3.47;;;;;;;17.65;73.17;99841.88;1661290;84;21013;-75
2021/06/18 01:22:33;;;;;;;12.82;4.17;;;;;;;17.60;73.74;99836.59;1664580;84;20892;-75
2021/06/18 01:25:28;;;;;;;8.53;3.67;;;;;;;17.53;74.12;99842.75;1692338;84;21040;-74
2021/06/18 01:28:04;;;;;;;8.73;3.85;;;;;;;17.48;74.48;99844.40;1684751;84;22000;-75
2021/06/18 01:30:31;;;;;;;9.80;4.45;;;;;;;17.43;74.76;99841.87;1667843;84;21480;-75
2021/06/18 01:33:04;;;;;;;11.40;4.28;;;;;;;17.39;75.10;99849.30;1659100;84;21593;-75
2021/06/18 01:35:50;;;;;;;13.00;4.33;;;;;;;17.33;75.30;99845.19;1633342;84;21005;-75
2021/06/18 01:38:17;;;;;;;9.00;4.10;;;;;;;17.30;75.59;99843.13;1695633;84;20996;-74
2021/06/18 01:40:44;;;;;;;8.43;3.87;;;;;;;17.24;75.74;99840.37;1689651;84;21132;-75
2021/06/18 01:43:12;;;;;;;5.92;3.25;;;;;;;17.20;75.94;99847.20;1692010;84;21575;-73
2021/06/18 01:45:41;;;;;;;9.03;3.90;;;;;;;17.16;76.02;99842.94;1636716;86;21031;-73
2021/06/18 01:48:08;;;;;;;8.88;3.40;;;;;;;17.14;76.19;99841.09;1623485;86;21097;-72
2021/06/18 01:50:34;;;;;;;11.43;3.50;;;;;;;17.14;76.35;99838.91;1634398;86;20991;-71
2021/06/18 01:53:13;;;;;;;7.67;3.47;;;;;;;17.16;76.24;99833.81;1636547;84;21855;-73
2021/06/18 01:55:40;;;;;;;10.53;4.03;;;;;;;17.20;76.11;99833.91;1677570;84;21005;-75
2021/06/18 01:58:06;;;;;;;12.07;3.55;;;;;;;17.16;76.02;99836.59;1686018;84;21116;-74
2021/06/18 02:00:36;;;;;;;15.93;4.30;;;;;;;17.12;76.20;99847.58;1666650;84;21452;-74
2021/06/18 02:03:04;;;;;;;5.90;3.17;;;;;;;17.08;76.08;99842.50;1659609;86;21536;-75
2021/06/18 02:05:31;;;;;;;13.53;4.12;;;;;;;17.04;76.25;99840.20;1620921;87;21255;-76
2021/06/18 02:07:58;;;;;;;12.30;3.60;;;;;;;17.02;76.18;99849.45;1640917;86;20921;-74
2021/06/18 02:10:25;;;;;;;8.90;3.62;;;;;;;17.03;76.17;99844.72;1652652;84;21169;-75
2021/06/18 02:12:51;;;;;;;8.10;3.15;;;;;;;17.02;76.08;99843.10;1674810;84;21804;-75
2021/06/18 02:15:17;;;;;;;7.65;3.22;;;;;;;17.00;76.04;99844.03;1692330;84;20993;-75
2021/06/18 02:17:44;;;;;;;8.20;3.10;;;;;;;16.99;75.92;99836.29;1655705;84;21544;-75
2021/06/18 02:20:12;;;;;;;13.35;3.40;;;;;;;17.00;75.76;99832.94;1665456;84;21173;-75
2021/06/18 02:22:40;;;;;;;6.75;3.12;;;;;;;17.01;75.59;99836.75;1656088;84;21060;-74
2021/06/18 02:25:09;;;;;;;9.33;3.20;;;;;;;17.02;75.55;99846.69;1664226;84;21064;-74
2021/06/18 02:27:36;;;;;;;11.15;3.02;;;;;;;17.02;75.61;99843.10;1668486;84;21053;-74
2021/06/18 02:30:04;;;;;;;5.03;3.47;;;;;;;17.04;75.59;99840.20;1622449;85;21121;-74
2021/06/18 02:32:30;;;;;;;11.40;3.90;;;;;;;17.09;75.85;99838.57;1669180;85;20918;-74
2021/06/18 02:34:58;;;;;;;8.43;4.00;;;;;;;17.21;76.35;99838.30;1664803;84;20926;-74
2021/06/18 02:37:25;;;;;;;18.25;4.47;;;;;;;17.34;76.39;99835.67;1666454;84;21428;-75
2021/06/18 02:39:51;;;;;;;10.68;4.40;;;;;;;17.44;76.09;99840.14;1669518;84;21121;-73
2021/06/18 02:42:17;;;;;;;16.25;4.55;;;;;;;17.52;76.07;99833.39;1673542;84;21161;-74
2021/06/18 02:44:44;;;;;;;12.73;4.75;;;;;;;17.59;75.98;99835.78;1688619;84;20947;-72
2021/06/18 02:47:15;;;;;;;12.78;4.35;;;;;;;17.62;75.90;99837.84;1685797;84;21057;-72
2021/06/18 02:49:54;;;;;;;12.82;5.12;;;;;;;17.66;75.80;99828.26;1694266;84;20994;-72
2021/06/18 02:52:28;;;;;;;12.60;4.87;;;;;;;17.71;75.60;99823.25;1667892;84;21011;-72
2021/06/18 02:55:12;;;;;;;17.50;4.72;;;;;;;17.74;75.54;99827.28;1669064;85;21150;-74
2021/06/18 02:57:43;;;;;;;9.53;3.80;;;;;;;17.78;75.53;99831.77;1669380;84;21461;-72
2021/06/18 03:00:11;;;;;;;7.70;4.25;;;;;;;17.78;75.23;99829.58;1674922;84;21047;-72
2021/06/18 03:02:45;;;;;;;10.75;4.40;;;;;;;17.77;75.38;99828.77;1663973;84;20955;-72
2021/06/18 03:05:14;;;;;;;10.90;4.30;;;;;;;17.79;75.31;99831.99;1676241;84;20958;-73
2021/06/18 03:07:45;;;;;;;12.65;4.42;;;;;;;17.84;75.25;99832.89;1670852;84;21138;-72
2021/06/18 03:10:15;;;;;;;9.15;4.65;;;;;;;17.85;75.00;99835.31;1683316;84;21508;-72
2021/06/18 03:12:42;;;;;;;14.87;4.45;;;;;;;17.85;74.83;99835.89;1681715;84;21010;-73
2021/06/18 03:15:10;;;;;;;15.05;4.45;;;;;;;17.83;74.78;99834.86;1651164;86;20989;-72
2021/06/18 03:17:38;;;;;;;9.58;3.67;;;;;;;17.84;74.69;99837.06;1665497;84;21457;-77
2021/06/18 03:20:11;;;;;;;13.75;3.85;;;;;;;17.80;74.90;99839.16;1645153;84;21142;-76
2021/06/18 03:22:38;;;;;;;16.85;3.70;;;;;;;17.76;75.00;99849.36;1668024;84;20977;-77
2021/06/18 03:25:06;;;;;;;14.98;3.90;;;;;;;17.73;75.39;99851.47;1641731;84;21037;-75
2021/06/18 03:27:33;;;;;;;10.93;3.90;;;;;;;17.72;75.59;99855.98;1687839;84;21036;-76
2021/06/18 03:29:59;;;;;;;10.63;3.65;;;;;;;17.70;75.76;99852.76;1664128;84;20898;-78
2021/06/18 03:32:25;;;;;;;8.63;3.70;;;;;;;17.69;75.99;99857.50;1632061;84;21137;-77
2021/06/18 03:34:52;;;;;;;14.95;4.87;;;;;;;17.69;76.10;99858.89;1672051;84;21017;-78
2021/06/18 03:37:19;;;;;;;11.83;3.87;;;;;;;17.67;76.21;99861.22;1662555;84;20986;-78
2021/06/18 03:39:46;;;;;;;8.63;3.98;;;;;;;17.66;76.30;99860.99;1685296;84;21100;-78
2021/06/18 03:42:12;;;;;;;11.75;3.80;;;;;;;17.67;76.16;99859.83;1667365;84;21034;-76
2021/06/18 03:44:39;;;;;;;8.68;3.45;;;;;;;17.69;76.15;99856.12;1675796;84;21112;-77
2021/06/18 03:47:06;;;;;;;10.43;3.62;;;;;;;17.75;75.80;99864.41;1654209;86;21215;-77
2021/06/18 03:49:32;;;;;;;8.65;4.08;;;;;;;17.79;75.70;99853.40;1676501;84;20996;-78
2021/06/18 03:51:58;;;;;;;8.33;3.58;;;;;;;17.81;75.29;99853.85;1664175;84;20957;-79
2021/06/18 03:54:25;;;;;;;10.00;3.33;;;;;;;17.85;75.50;99848.39;1664922;84;20960;-79
2021/06/18 03:56:52;;;;;;;5.47;3.08;;;;;;;17.88;75.18;99856.01;1680103;84;21144;-79
2021/06/18 03:59:19;;;;;;;10.70;3.40;;;;;;;17.92;75.26;99854.10;1678163;84;21039;-79
2021/06/18 04:01:51;;;;;;;12.82;3.35;;;;;;;17.99;75.28;99854.28;1674271;84;20959;-78
2021/06/18 04:04:22;;;;;;;5.33;3.45;;;;;;;18.04;75.10;99858.19;1662169;84;21487;-77
2021/06/18 04:06:48;;;;;;;7.25;3.70;;;;;;;18.09;74.94;99863.48;1664481;84;21042;-78
2021/06/18 04:09:16;;;;;;;11.30;3.52;;;;;;;18.17;74.96;99865.27;1654930;84;21981;-78
2021/06/18 04:11:45;;;;;;;7.00;3.75;;;;;;;18.25;75.11;99877.38;1651526;84;21437;-78
2021/06/18 04:14:14;;;;;;;12.20;3.22;;;;;;;18.31;74.59;99869.80;1671525;84;21491;-78
2021/06/18 04:16:42;;;;;;;5.22;3.65;;;;;;;18.39;74.32;99878.53;1660747;84;20950;-79
2021/06/18 04:19:10;;;;;;;8.63;3.40;;;;;;;18.46;73.95;99879.29;1671315;84;20966;-77
2021/06/18 04:21:44;;;;;;;12.55;3.52;;;;;;;18.53;73.87;99884.19;1666175;84;20938;-78
2021/06/18 04:24:15;;;;;;;9.35;3.30;;;;;;;18.58;74.12;99881.13;1677969;84;20918;-77
2021/06/18 04:26:42;;;;;;;5.37;3.27;;;;;;;18.63;73.40;99871.16;1653652;84;21034;-78
2021/06/18 04:29:09;;;;;;;9.38;3.08;;;;;;;18.68;72.74;99875.85;1668059;84;21101;-78
2021/06/18 04:31:37;;;;;;;9.78;3.98;;;;;;;18.76;73.05;99879.02;1672942;84;20866;-76
2021/06/18 04:34:06;;;;;;;12.53;3.50;;;;;;;18.85;72.27;99871.87;1681056;84;20943;-77
2021/06/18 04:36:35;;;;;;;12.07;3.47;;;;;;;18.96;71.88;99860.98;1654746;85;21415;-77
2021/06/18 04:39:01;;;;;;;11.83;3.30;;;;;;;19.03;70.96;99863.92;1644987;84;21020;-76
2021/06/18 04:41:27;;;;;;;12.70;2.95;;;;;;;19.11;71.54;99865.06;1689370;84;22066;-77
2021/06/18 04:43:54;;;;;;;3.80;2.70;;;;;;;19.20;70.37;99863.46;1662704;84;21494;-77
2021/06/18 04:46:21;;;;;;;16.00;2.90;;;;;;;19.28;70.63;99864.42;1680499;84;21229;-78
2021/06/18 04:48:47;;;;;;;5.83;2.98;;;;;;;19.39;71.29;99865.44;1698626;84;21067;-78
2021/06/18 04:51:18;;;;;;;9.40;2.95;;;;;;;19.47;70.42;99864.41;1666543;84;20972;-78
2021/06/18 04:53:46;;;;;;;10.28;2.83;;;;;;;19.57;71.02;99865.83;1643469;86;21027;-78
2021/06/18 04:56:13;;;;;;;6.92;3.05;;;;;;;19.65;70.31;99863.37;1666224;84;21075;-73
2021/06/18 04:58:40;;;;;;;7.87;2.72;;;;;;;19.73;69.53;99861.75;1671220;84;21460;-74
2021/06/18 05:01:07;;;;;;;8.18;2.60;;;;;;;19.81;68.97;99868.26;1647750;84;20908;-72
2021/06/18 05:03:34;;;;;;;13.53;2.65;;;;;;;19.89;68.98;99856.66;1655244;85;20936;-71
2021/06/18 05:06:00;;;;;;;7.60;2.55;;;;;;;19.97;68.91;99858.39;1654184;85;21048;-70
2021/06/18 05:08:26;;;;;;;5.70;2.62;;;;;;;20.05;69.47;99860.13;1647560;84;21614;-70
2021/06/18 05:10:53;;;;;;;6.47;2.70;;;;;;;20.13;68.66;99865.24;1630397;86;21471;-69
2021/06/18 05:13:20;;;;;;;9.43;2.70;;;;;;;20.19;68.02;99859.58;1645960;86;21058;-69
2021/06/18 05:15:47;;;;;;;4.30;2.25;;;;;;;20.26;68.53;99857.68;1644913;85;21689;-69
2021/06/18 05:18:14;;;;;;;6.60;2.67;;;;;;;20.36;68.59;99854.86;1668220;85;20928;-69
2021/06/18 05:20:41;;;;;;;6.85;2.80;;;;;;;20.45;68.09;99849.85;1642348;86;21537;-69
2021/06/18 05:23:09;;;;;;;12.88;2.58;;;;;;;20.53;68.03;99843.80;1660921;85;21245;-70
2021/06/18 05:25:36;;;;;;;3.52;1.85;;;;;;;20.63;68.27;99842.56;1656616;85;21424;-70
2021/06/18 05:28:04;;;;;;;6.60;2.37;;;;;;;20.74;68.36;99845.52;1653481;85;21180;-70
2021/06/18 05:30:30;;;;;;;6.25;1.77;;;;;;;20.82;65.58;99837.42;1661272;85;20967;-70
2021/06/18 05:32:57;;;;;;;5.97;2.37;;;;;;;20.91;64.40;99830.17;1644818;85;21106;-69
2021/06/18 05:35:23;;;;;;;23.00;2.52;;;;;;;20.99;64.76;99831.28;1644198;86;21148;-69
2021/06/18 05:37:51;;;;;;;9.25;2.10;;;;;;;21.08;64.60;99820.64;1648024;86;20991;-70
2021/06/18 05:40:17;;;;;;;6.12;1.77;;;;;;;21.18;64.32;99825.34;1655926;85;20960;-71
2021/06/18 05:42:44;;;;;;;6.28;1.90;;;;;;;21.28;63.67;99824.70;1634255;85;21041;-70
2021/06/18 05:45:12;;;;;;;3.77;2.12;;;;;;;21.35;63.03;99828.38;1662138;85;21530;-70
2021/06/18 05:47:39;;;;;;;4.00;2.10;;;;;;;21.42;62.82;99824.84;1635583;86;21152;-71
2021/06/18 05:50:07;;;;;;;5.40;2.35;;;;;;;21.51;63.08;99814.16;1603130;88;21054;-70
2021/06/18 05:52:34;;;;;;;7.53;2.67;;;;;;;21.60;63.14;99816.66;1605970;88;21088;-71
2021/06/18 05:55:00;;;;;;;4.53;2.08;;;;;;;21.73;63.26;99820.78;1611307;88;20997;-71
2021/06/18 05:57:27;;;;;;;5.85;2.58;;;;;;;21.83;62.76;99827.07;1625831;87;20990;-73
2021/06/18 05:59:53;;;;;;;4.47;1.80;;;;;;;21.89;61.19;99828.33;1634032;87;21458;-70
2021/06/18 06:02:22;;;;;;;5.42;2.00;;;;;;;21.97;61.82;99837.55;1601867;88;21061;-71
2021/06/18 06:04:48;;;;;;;3.20;1.95;;;;;;;22.04;61.67;99835.66;1606089;88;20942;-72
2021/06/18 06:07:15;;;;;;;7.30;2.17;;;;;;;22.12;61.50;99831.53;1600089;89;21487;-71
2021/06/18 06:09:42;;;;;;;4.75;2.10;;;;;;;22.19;62.38;99834.39;1684082;84;21531;-71
2021/06/18 06:12:09;;;;;;;7.55;2.10;;;;;;;;;;1655551;84;21164;-71
2021/06/18 06:14:35;;;;;;;3.72;2.05;;;;;;;22.36;61.59;99827.54;1659444;85;21470;-72
2021/06/18 06:17:04;;;;;;;3.90;2.00;;;;;;;22.48;61.57;99827.02;1592131;88;21086;-72
2021/06/18 06:19:32;;;;;;;6.53;2.10;;;;;;;22.58;61.72;99823.47;1639798;85;21659;-72
2021/06/18 06:21:58;;;;;;;7.15;2.52;;;;;;;22.70;60.35;99828.74;1649965;84;21037;-72
2021/06/18 06:24:24;;;;;;;6.17;1.90;;;;;;;22.79;60.82;99822.83;1621183;86;21243;-73
2021/06/18 06:26:51;;;;;;;9.23;2.30;;;;;;;22.85;59.98;99823.47;1619881;88;21453;-73
2021/06/18 06:29:17;;;;;;;5.10;1.77;;;;;;;22.94;59.58;99823.91;1606693;88;21118;-72
2021/06/18 06:31:45;;;;;;;3.20;1.98;;;;;;;23.02;58.36;99826.95;1600729;87;21034;-71
2021/06/18 06:34:12;;;;;;;5.12;2.15;;;;;;;23.08;58.91;99830.78;1647105;84;21509;-73
2021/06/18 06:36:38;;;;;;;6.35;1.90;;;;;;;23.12;58.37;99826.77;1680515;84;21793;-73
2021/06/18 06:39:05;;;;;;;5.83;2.33;;;;;;;23.20;58.71;99823.41;1642185;87;21067;-74
2021/06/18 06:41:32;;;;;;;3.52;1.70;;;;;;;23.28;58.08;99825.04;1657874;84;21114;-73
2021/06/18 06:43:59;;;;;;;5.80;2.00;;;;;;;23.37;58.50;99825.47;1657314;84;21557;-72
2021/06/18 06:46:25;;;;;;;8.78;2.08;;;;;;;23.44;57.56;99817.69;1652112;85;21175;-73
2021/06/18 06:48:51;;;;;;;2.80;1.80;;;;;;;23.49;57.41;99829.31;1657968;84;21195;-73
2021/06/18 06:51:18;;;;;;;2.47;1.67;;;;;;;23.56;57.98;99825.76;1660419;84;21087;-73
2021/06/18 06:53:44;;;;;;;11.33;2.17;;;;;;;23.65;57.66;99815.78;1676071;84;20973;-71
2021/06/18 06:56:11;;;;;;;6.15;1.87;;;;;;;23.76;57.21;99810.77;1673395;84;20997;-73
2021/06/18 06:58:37;;;;;;;6.28;1.90;;;;;;;23.85;57.33;99809.17;1689413;84;21057;-74
2021/06/18 07:01:05;;;;;;;7.70;2.30;;;;;;;23.95;57.60;99804.78;1639674;85;22519;-72
2021/06/18 07:03:32;;;;;;;3.35;1.70;;;;;;;24.03;56.33;99812.00;1643709;85;20980;-73
2021/06/18 07:05:58;;;;;;;4.87;1.90;;;;;;;24.12;56.32;99809.59;1629603;86;21530;-77
2021/06/18 07:08:25;;;;;;;5.72;2.15;;;;;;;24.23;56.29;99803.98;1642437;86;21556;-74
2021/06/18 07:10:53;;;;;;;7.03;1.92;;;;;;;24.32;55.85;99805.78;1584663;88;21590;-72
2021/06/18 07:13:21;;;;;;;5.53;2.20;;;;;;;24.42;55.96;99801.36;1622160;87;21204;-74
2021/06/18 07:15:50;;;;;;;4.65;2.08;;;;;;;24.52;55.68;99799.95;1600836;87;21009;-74
2021/06/18 07:18:16;;;;;;;6.50;1.80;;;;;;;24.62;55.79;99803.34;1593407;88;20968;-72
2021/06/18 07:20:43;;;;;;;5.03;1.92;;;;;;;24.73;55.22;99803.92;1600728;88;21487;-77
2021/06/18 07:23:09;;;;;;;7.30;2.20;;;;;;;24.83;55.34;99796.87;1600626;88;20992;-72
2021/06/18 07:25:38;;;;;;;5.37;1.85;;;;;;;24.93;54.41;99803.02;1596207;89;21578;-71
2021/06/18 07:28:06;;;;;;;10.25;2.05;;;;;;;24.97;54.36;99799.62;1594281;88;20967;-77
2021/06/18 07:30:33;;;;;;;6.10;2.00;;;;;;;25.05;54.01;99802.41;1584742;89;21118;-72
2021/06/18 07:32:59;;;;;;;11.33;2.40;;;;;;;25.12;54.83;99795.36;1640436;86;21007;-77
2021/06/18 07:35:25;;;;;;;4.65;2.30;;;;;;;25.20;53.64;99796.94;1626908;86;21199;-73
2021/06/18 07:37:53;;;;;;;6.30;1.98;;;;;;;25.26;53.27;99805.13;1652003;85;21980;-73
2021/06/18 07:40:20;;;;;;;4.62;1.80;;;;;;;25.35;53.41;99805.49;1652213;85;21528;-75
2021/06/18 07:42:46;;;;;;;5.42;1.90;;;;;;;25.46;54.08;99809.02;1652640;86;20997;-74
2021/06/18 07:45:14;;;;;;;4.35;2.25;;;;;;;25.58;52.99;99811.97;1621593;87;20932;-72
2021/06/18 07:47:40;;;;;;;3.52;2.27;;;;;;;25.65;51.12;99815.56;1625666;86;21080;-71
2021/06/18 07:50:10;;;;;;;11.73;1.92;;;;;;;25.65;51.07;99821.80;1646481;84;21140;-77
2021/06/18 07:52:37;;;;;;;3.45;2.10;;;;;;;25.63;50.70;99827.80;1648434;84;21435;-87
2021/06/18 07:55:06;;;;;;;7.20;2.45;;;;;;;25.72;52.46;99833.60;1655639;86;21033;-85
2021/06/18 07:57:33;;;;;;;8.58;2.52;;;;;;;25.87;51.40;99835.11;1666057;85;21000;-82
2021/06/18 08:00:00;;;;;;;5.65;1.80;;;;;;;25.98;50.98;99830.21;1648138;86;20930;-73
2021/06/18 08:02:26;;;;;;;6.03;2.20;;;;;;;26.09;51.63;99832.91;1647965;86;21493;-72
2021/06/18 08:04:53;;;;;;;10.00;1.75;;;;;;;26.16;48.86;99830.84;1623168;87;20935;-72
2021/06/18 08:07:21;;;;;;;15.23;2.22;;;;;;;26.24;50.60;99839.42;1648024;86;21067;-79
2021/06/18 08:09:50;;;;;;;11.18;2.45;;;;;;;26.33;50.28;99836.17;1652687;84;20930;-76
2021/06/18 08:12:16;;;;;;;8.15;2.37;;;;;;;26.47;50.85;99833.23;1648224;83;21024;-84
2021/06/18 08:14:43;;;;;;;5.50;2.50;;;;;;;26.54;49.79;99837.99;1636007;85;21057;-77
2021/06/18 08:17:10;;;;;;;8.13;2.72;;;;;;;26.64;50.38;99831.42;1658713;84;21035;-84
2021/06/18 08:19:37;;;;;;;13.38;2.40;;;;;;;26.81;48.37;99831.06;1632092;85;21088;-77
2021/06/18 08:22:04;;;;;;;10.20;2.17;;;;;;;26.91;49.02;99827.33;1633938;85;21534;-76
2021/06/18 08:24:33;;;;;;;6.10;1.95;;;;;;;27.12;48.39;99833.36;1643353;85;21518;-76
2021/06/18 08:27:00;;;;;;;5.00;2.40;;;;;;;27.41;48.64;99828.93;1646761;84;21131;-74
2021/06/18 08:29:26;;;;;;;7.33;2.55;;;;;;;27.67;47.00;99833.65;1631900;85;21033;-74
2021/06/18 08:31:53;;;;;;;3.15;1.72;;;;;;;27.82;47.16;99830.78;1657604;84;21030;-76
2021/06/18 08:34:21;;;;;;;10.98;2.58;;;;;;;27.92;47.62;99835.47;1657019;85;21112;-80
2021/06/18 08:36:48;;;;;;;5.03;1.95;;;;;;;28.08;46.34;99835.62;1660204;84;21087;-78
2021/06/18 08:39:14;;;;;;;9.25;1.90;;;;;;;28.28;46.01;99840.58;1673031;84;21119;-78
2021/06/18 08:41:41;;;;;;;4.10;2.50;;;;;;;28.46;46.46;99833.37;1675699;84;21031;-78
2021/06/18 08:44:07;;;;;;;8.60;2.83;;;;;;;28.60;46.05;99827.47;1656154;84;21117;-83
2021/06/18 08:46:34;;;;;;;4.70;2.42;;;;;;;28.84;45.46;99829.68;1666338;84;21076;-75
2021/06/18 08:49:00;;;;;;;8.85;2.20;;;;;;;29.00;44.35;99830.36;1655069;84;21023;-75
2021/06/18 08:51:27;;;;;;;10.78;2.17;;;;;;;28.99;43.62;99828.76;1648975;84;21149;-75
2021/06/18 08:53:53;;;;;;;12.65;2.45;;;;;;;28.91;43.52;99821.03;1652134;84;21093;-75
2021/06/18 08:56:20;;;;;;;5.50;1.92;;;;;;;28.84;43.89;99819.80;1647370;84;21016;-80
2021/06/18 08:58:48;;;;;;;5.70;2.25;;;;;;;28.90;45.03;99824.30;1656494;84;21009;-78
2021/06/18 09:01:16;;;;;;;10.75;2.10;;;;;;;28.99;44.19;99823.72;1642925;85;20981;-74
2021/06/18 09:03:46;;;;;;;6.53;2.00;;;;;;;29.13;45.01;99817.17;1651181;85;21164;-74
2021/06/18 09:06:28;;;;;;;15.35;2.40;;;;;;;29.25;42.69;99822.17;1654993;84;21069;-73
2021/06/18 09:09:22;;;;;;;3.67;1.95;;;;;;;29.28;42.50;99826.16;1652470;84;21563;-72
2021/06/18 09:12:01;;;;;;;9.68;2.12;;;;;;;29.31;42.93;99815.38;1639618;85;21049;-81
2021/06/18 09:14:34;;;;;;;4.55;1.80;;;;;;;29.36;43.08;99822.56;1650684;84;21747;-72
2021/06/18 09:17:13;;;;;;;;;;;;;;;29.51;43.62;99824.64;1653170;86;21132;-71
2021/06/18 09:19:46;;;;;;;5.17;1.95;;;;;;;29.67;44.52;99829.55;1653538;84;20153;-69
2021/06/18 09:22:25;;;;;;;5.40;1.82;;;;;;;29.79;43.15;99828.06;1664723;84;20981;-74
2021/06/18 09:25:09;;;;;;;7.12;2.00;;;;;;;29.84;42.69;99840.28;1678872;84;21606;-74
2021/06/18 09:27:42;;;;;;;9.85;2.40;;;;;;;29.92;43.60;99843.13;1660948;84;21021;-73
2021/06/18 09:30:27;;;;;;;10.55;2.65;;;;;;;29.98;43.00;99842.77;1676988;84;21812;-77
2021/06/18 09:33:08;;;;;;;8.43;2.00;;;;;;;29.95;42.63;99844.27;1670960;84;21218;-75
2021/06/18 09:35:34;;;;;;;3.95;2.40;;;;;;;29.89;42.61;99832.68;1645533;85;21053;-79
2021/06/18 09:38:05;;;;;;;7.95;2.10;;;;;;;29.89;43.66;99828.44;1659130;84;21002;-82
2021/06/18 09:40:32;;;;;;;;;;;;;;;29.94;44.10;99820.04;1649818;84;21525;-83
2021/06/18 09:43:11;;;;;;;5.75;2.00;;;;;;;30.02;43.92;99825.73;1670609;84;21138;-85
2021/06/18 09:45:40;;;;;;;9.20;1.80;;;;;;;30.16;43.13;99826.16;1634341;85;21088;-78
2021/06/18 09:48:21;;;;;;;8.48;2.08;;;;;;;30.20;43.32;99814.75;1666235;84;21545;-74
2021/06/18 09:50:52;;;;;;;8.45;1.98;;;;;;;30.30;44.39;99817.13;1658858;84;21024;-74
2021/06/18 09:53:24;;;;;;;9.98;2.05;;;;;;;30.39;43.15;99807.39;1667923;84;21155;-75
2021/06/18 09:56:08;;;;;;;7.95;2.42;;;;;;;30.60;43.94;99804.64;1658469;84;21173;-74
2021/06/18 09:58:45;;;;;;;7.47;2.27;;;;;;;30.83;42.99;99805.18;1641750;85;21030;-74
2021/06/18 10:01:26;;;;;;;3.83;2.00;;;;;;;30.93;44.28;99799.66;1644560;84;20968;-73
2021/06/18 10:03:59;;;;;;;3.85;1.95;;;;;;;30.99;42.00;99797.86;1650897;84;21180;-74
2021/06/18 10:06:28;;;;;;;4.40;2.02;;;;;;;30.90;42.74;99801.34;1632187;84;21135;-73
2021/06/18 10:08:56;;;;;;;7.72;2.60;;;;;;;30.80;42.77;99800.41;1650290;84;21214;-72
2021/06/18 10:11:23;;;;;;;3.75;2.52;;;;;;;30.77;42.11;99798.47;1637295;84;21100;-73
2021/06/18 10:13:50;;;;;;;4.58;2.17;;;;;;;30.81;42.26;99799.78;1629643;85;21057;-73
2021/06/18 10:16:20;;;;;;;6.87;2.10;;;;;;;30.73;42.63;99796.34;1669270;84;21103;-73
2021/06/18 10:18:47;;;;;;;8.80;2.12;;;;;;;30.78;42.27;99798.64;1617431;86;21192;-74
2021/06/18 10:21:14;;;;;;;6.20;2.42;;;;;;;30.73;41.60;99803.44;1586189;88;21174;-73
2021/06/18 10:23:43;;;;;;;7.08;2.08;;;;;;;30.63;42.39;99798.85;1614469;87;20965;-73
2021/06/18 10:26:12;;;;;;;7.35;2.12;;;;;;;30.61;44.10;99795.70;1612936;87;21055;-73
2021/06/18 10:28:40;;;;;;;4.90;1.82;;;;;;;30.68;43.26;99798.31;1620201;87;21040;-74
2021/06/18 10:31:07;;;;;;;8.65;2.12;;;;;;;30.62;42.31;99802.16;1608408;88;21046;-79
2021/06/18 10:33:37;;;;;;;3.17;2.30;;;;;;;30.63;43.60;99801.69;1601087;88;21110;-79
2021/06/18 10:36:25;;;;;;;8.28;2.33;;;;;;;30.73;43.99;99804.85;1647805;86;21465;-81
2021/06/18 10:39:14;;;;;;;5.87;2.17;;;;;;;30.93;43.53;99799.66;1665022;86;21021;-82
2021/06/18 10:41:54;;;;;;;3.72;2.15;;;;;;;30.96;41.66;99804.44;1646857;84;21595;-82
2021/06/18 10:44:45;;;;;;;2.35;1.80;;;;;;;30.82;43.01;99795.09;1628052;86;21041;-81
2021/06/18 10:47:36;;;;;;;7.03;2.25;;;;;;;30.66;42.98;99793.71;1617515;88;21151;-86
2021/06/18 10:50:04;;;;;;;8.73;2.22;;;;;;;30.50;43.92;99797.38;1574716;89;20916;-80
2021/06/18 10:52:43;;;;;;;4.65;1.92;;;;;;;30.49;43.50;99795.78;1587894;89;21015;-80
2021/06/18 10:55:10;;;;;;;5.28;1.82;;;;;;;30.57;42.72;99784.26;1644285;86;21040;-81
2021/06/18 10:57:52;;;;;;;5.17;2.30;;;;;;;30.47;42.76;99790.39;1626918;86;20950;-81
2021/06/18 11:00:23;;;;;;;6.65;2.12;;;;;;;30.17;43.13;99794.39;1659493;85;21168;-72
2021/06/18 11:02:50;;;;;;;3.87;1.90;;;;;;;29.97;43.87;99794.48;1652719;86;21194;-72
2021/06/18 11:05:32;;;;;;;4.62;1.95;;;;;;;29.95;44.55;99785.64;1646547;86;21040;-73
2021/06/18 11:08:24;;;;;;;5.03;1.85;;;;;;;30.11;44.19;99779.18;1643065;86;21175;-74
2021/06/18 11:10:51;;;;;;;4.62;1.98;;;;;;;30.20;43.46;99781.56;1635358;86;21066;-73
2021/06/18 11:13:18;;;;;;;3.67;2.22;;;;;;;30.20;43.61;99765.99;1644518;86;21129;-72
2021/06/18 11:15:46;;;;;;;6.25;2.17;;;;;;;30.15;44.70;99770.77;1634443;86;21055;-73
2021/06/18 11:18:32;;;;;;;4.62;1.98;;;;;;;30.24;44.30;99772.98;1649631;86;21588;-73
2021/06/18 11:20:59;;;;;;;13.28;2.37;;;;;;;30.25;44.03;99769.53;1658312;85;21047;-72
2021/06/18 11:23:32;;;;;;;4.40;2.00;;;;;;;30.04;43.68;99775.91;1639668;85;21635;-72
2021/06/18 11:26:10;;;;;;;4.70;2.30;;;;;;;30.02;45.22;99775.59;1630014;86;21153;-72
2021/06/18 11:28:46;;;;;;;7.25;2.20;;;;;;;30.16;44.56;99773.78;1644042;85;20999;-73
2021/06/18 11:31:19;;;;;;;6.17;2.08;;;;;;;30.41;44.37;99777.38;1640861;86;21092;-73
2021/06/18 11:33:54;;;;;;;4.62;1.82;;;;;;;30.73;45.30;99783.60;1615963;87;21175;-73
2021/06/18 11:36:35;;;;;;;5.97;2.00;;;;;;;31.15;42.43;99773.11;1676379;84;20989;-73
2021/06/18 11:39:15;;;;;;;9.05;2.80;;;;;;;31.39;41.49;99779.25;1657132;85;21203;-73
2021/06/18 11:41:47;;;;;;;4.13;2.27;;;;;;;31.51;42.27;99783.34;1630284;86;21055;-74
2021/06/18 11:44:16;;;;;;;6.30;2.10;;;;;;;31.61;41.72;99775.75;1603423;87;21679;-75